sensor_id;sensor_type;location;lat;lon;timestamp;pressure;altitude;pressure_sealevel;temperature;humidity
77161;BME280;66135;0.000;0.000;2023-08-20T00:02:08;101960.22;;;23.73;73.16
77161;BME280;66135;0.000;0.000;2023-08-20T00:04:36;101955.41;;;23.75;73.00
77161;BME280;66135;0.000;0.000;2023-08-20T00:07:02;101962.59;;;23.76;72.94
77161;BME280;66135;0.000;0.000;2023-08-20T00:09:28;101956.44;;;23.74;73.11
77161;BME280;66135;0.000;0.000;2023-08-20T00:11:54;101945.50;;;23.74;73.19
77161;BME280;66135;0.000;0.000;2023-08-20T00:14:19;101944.16;;;23.70;73.01
77161;BME280;66135;0.000;0.000;2023-08-20T00:16:46;101954.28;;;23.69;73.05
77161;BME280;66135;0.000;0.000;2023-08-20T00:19:12;101958.50;;;23.72;72.92
77161;BME280;66135;0.000;0.000;2023-08-20T00:21:43;101960.56;;;23.70;73.08
77161;BME280;66135;0.000;0.000;2023-08-20T00:24:10;101965.03;;;23.71;72.83
77161;BME280;66135;0.000;0.000;2023-08-20T00:26:36;101953.03;;;23.72;73.32
77161;BME280;66135;0.000;0.000;2023-08-20T00:29:01;101947.09;;;23.68;72.85
77161;BME280;66135;0.000;0.000;2023-08-20T00:31:27;101951.06;;;23.66;72.86
77161;BME280;66135;0.000;0.000;2023-08-20T00:33:52;101958.22;;;23.67;73.02
77161;BME280;66135;0.000;0.000;2023-08-20T00:36:18;101957.34;;;23.66;72.87
77161;BME280;66135;0.000;0.000;2023-08-20T00:38:43;101961.81;;;23.67;72.70
77161;BME280;66135;0.000;0.000;2023-08-20T00:41:09;101977.56;;;23.65;72.84
77161;BME280;66135;0.000;0.000;2023-08-20T00:43:34;101979.25;;;23.66;72.98
77161;BME280;66135;0.000;0.000;2023-08-20T00:46:00;101983.50;;;23.69;72.75
77161;BME280;66135;0.000;0.000;2023-08-20T00:48:25;101987.09;;;23.69;72.96
77161;BME280;66135;0.000;0.000;2023-08-20T00:50:51;101989.16;;;23.67;72.74
77161;BME280;66135;0.000;0.000;2023-08-20T00:53:17;101992.09;;;23.66;72.86
77161;BME280;66135;0.000;0.000;2023-08-20T00:55:43;101990.38;;;23.65;72.31
77161;BME280;66135;0.000;0.000;2023-08-20T00:58:11;101980.47;;;23.64;72.74
77161;BME280;66135;0.000;0.000;2023-08-20T01:00:37;101996.72;;;23.65;72.92
77161;BME280;66135;0.000;0.000;2023-08-20T01:03:03;101991.03;;;23.67;72.74
77161;BME280;66135;0.000;0.000;2023-08-20T01:05:33;102008.50;;;23.66;72.79
77161;BME280;66135;0.000;0.000;2023-08-20T01:13:16;102020.28;;;23.66;72.67
77161;BME280;66135;0.000;0.000;2023-08-20T01:15:42;102023.03;;;23.66;72.57
77161;BME280;66135;0.000;0.000;2023-08-20T01:18:07;102029.34;;;23.67;72.61
77161;BME280;66135;0.000;0.000;2023-08-20T01:20:36;102036.03;;;23.64;72.69
77161;BME280;66135;0.000;0.000;2023-08-20T01:25:56;102032.47;;;23.64;72.34
77161;BME280;66135;0.000;0.000;2023-08-20T01:28:30;102017.91;;;23.63;72.90
77161;BME280;66135;0.000;0.000;2023-08-20T01:30:58;102017.72;;;23.65;72.64
77161;BME280;66135;0.000;0.000;2023-08-20T01:33:24;102029.72;;;23.64;72.69
77161;BME280;66135;0.000;0.000;2023-08-20T01:35:54;102022.72;;;23.61;72.77
77161;BME280;66135;0.000;0.000;2023-08-20T01:38:20;102017.72;;;23.65;72.53
77161;BME280;66135;0.000;0.000;2023-08-20T01:40:46;102016.03;;;23.64;72.56
77161;BME280;66135;0.000;0.000;2023-08-20T01:43:12;102018.59;;;23.65;72.51
77161;BME280;66135;0.000;0.000;2023-08-20T01:45:37;102028.88;;;23.63;72.71
77161;BME280;66135;0.000;0.000;2023-08-20T01:48:03;102023.38;;;23.63;72.51
77161;BME280;66135;0.000;0.000;2023-08-20T01:50:32;102014.31;;;23.63;72.46
77161;BME280;66135;0.000;0.000;2023-08-20T01:52:58;102027.34;;;23.61;72.55
77161;BME280;66135;0.000;0.000;2023-08-20T01:55:23;102026.50;;;23.60;72.39
77161;BME280;66135;0.000;0.000;2023-08-20T01:57:48;102025.63;;;23.60;72.58
77161;BME280;66135;0.000;0.000;2023-08-20T02:00:14;102027.50;;;23.59;72.17
77161;BME280;66135;0.000;0.000;2023-08-20T02:02:40;102022.72;;;23.61;72.67
77161;BME280;66135;0.000;0.000;2023-08-20T02:05:05;102040.84;;;23.62;72.60
77161;BME280;66135;0.000;0.000;2023-08-20T02:07:31;102036.59;;;23.60;72.44
77161;BME280;66135;0.000;0.000;2023-08-20T02:09:56;102035.91;;;23.58;72.40
77161;BME280;66135;0.000;0.000;2023-08-20T02:12:21;102042.44;;;23.57;72.47
77161;BME280;66135;0.000;0.000;2023-08-20T02:14:47;102040.72;;;23.56;72.44
77161;BME280;66135;0.000;0.000;2023-08-20T02:17:12;102039.69;;;23.57;72.40
77161;BME280;66135;0.000;0.000;2023-08-20T02:19:38;102046.03;;;23.57;72.70
77161;BME280;66135;0.000;0.000;2023-08-20T02:22:04;102047.91;;;23.57;72.60
77161;BME280;66135;0.000;0.000;2023-08-20T02:24:29;102039.69;;;23.57;72.64
77161;BME280;66135;0.000;0.000;2023-08-20T02:26:55;102046.19;;;23.56;72.26
77161;BME280;66135;0.000;0.000;2023-08-20T02:29:20;102041.38;;;23.58;72.43
77161;BME280;66135;0.000;0.000;2023-08-20T02:31:45;102036.09;;;23.56;72.49
77161;BME280;66135;0.000;0.000;2023-08-20T02:34:11;102041.56;;;23.56;72.72
77161;BME280;66135;0.000;0.000;2023-08-20T02:36:36;102040.88;;;23.54;72.60
77161;BME280;66135;0.000;0.000;2023-08-20T02:39:02;102039.88;;;23.55;72.46
77161;BME280;66135;0.000;0.000;2023-08-20T02:41:29;102029.13;;;23.54;72.39
77161;BME280;66135;0.000;0.000;2023-08-20T02:43:54;102035.59;;;23.53;72.67
77161;BME280;66135;0.000;0.000;2023-08-20T02:46:20;102030.81;;;23.55;72.23
77161;BME280;66135;0.000;0.000;2023-08-20T02:48:45;102034.41;;;23.55;72.61
77161;BME280;66135;0.000;0.000;2023-08-20T02:51:10;102023.66;;;23.54;72.74
77161;BME280;66135;0.000;0.000;2023-08-20T02:53:36;102023.81;;;23.52;72.31
77161;BME280;66135;0.000;0.000;2023-08-20T02:56:01;102027.22;;;23.54;72.26
77161;BME280;66135;0.000;0.000;2023-08-20T02:58:28;102025.72;;;23.52;72.38
77161;BME280;66135;0.000;0.000;2023-08-20T03:00:54;102022.31;;;23.50;72.71
77161;BME280;66135;0.000;0.000;2023-08-20T03:03:19;102028.63;;;23.50;72.19
77161;BME280;66135;0.000;0.000;2023-08-20T03:05:44;102025.72;;;23.52;72.33
77161;BME280;66135;0.000;0.000;2023-08-20T03:08:10;102024.19;;;23.49;72.55
77161;BME280;66135;0.000;0.000;2023-08-20T03:10:35;102020.59;;;23.49;72.64
77161;BME280;66135;0.000;0.000;2023-08-20T03:13:01;102019.56;;;23.50;72.66
77161;BME280;66135;0.000;0.000;2023-08-20T03:15:30;102017.22;;;23.47;72.50
77161;BME280;66135;0.000;0.000;2023-08-20T03:17:56;102018.03;;;23.47;72.78
77161;BME280;66135;0.000;0.000;2023-08-20T03:20:22;102014.47;;;23.47;72.59
77161;BME280;66135;0.000;0.000;2023-08-20T03:22:47;102023.16;;;23.50;72.09
77161;BME280;66135;0.000;0.000;2023-08-20T03:25:13;102018.72;;;23.49;72.29
77161;BME280;66135;0.000;0.000;2023-08-20T03:27:39;102015.78;;;23.51;72.63
77161;BME280;66135;0.000;0.000;2023-08-20T03:30:05;102021.06;;;23.52;72.48
77161;BME280;66135;0.000;0.000;2023-08-20T03:32:31;102015.78;;;23.51;71.95
77161;BME280;66135;0.000;0.000;2023-08-20T03:34:56;102018.53;;;23.51;72.22
77161;BME280;66135;0.000;0.000;2023-08-20T03:37:27;102022.97;;;23.52;72.25
77161;BME280;66135;0.000;0.000;2023-08-20T03:39:52;102014.09;;;23.50;72.21
77161;BME280;66135;0.000;0.000;2023-08-20T03:42:18;102023.50;;;23.47;72.48
77161;BME280;66135;0.000;0.000;2023-08-20T03:44:43;102027.28;;;23.46;72.08
77161;BME280;66135;0.000;0.000;2023-08-20T03:47:08;102023.31;;;23.49;72.53
77161;BME280;66135;0.000;0.000;2023-08-20T03:49:34;102039.09;;;23.47;72.40
77161;BME280;66135;0.000;0.000;2023-08-20T03:51:59;102036.34;;;23.47;72.47
77161;BME280;66135;0.000;0.000;2023-08-20T03:54:28;102032.94;;;23.45;72.44
77161;BME280;66135;0.000;0.000;2023-08-20T03:56:54;102041.81;;;23.47;72.05
77161;BME280;66135;0.000;0.000;2023-08-20T03:59:19;102044.56;;;23.47;72.20
77161;BME280;66135;0.000;0.000;2023-08-20T04:01:44;102039.25;;;23.45;72.02
77161;BME280;66135;0.000;0.000;2023-08-20T04:04:10;102043.03;;;23.44;72.36
77161;BME280;66135;0.000;0.000;2023-08-20T04:06:35;102035.69;;;23.45;72.44
77161;BME280;66135;0.000;0.000;2023-08-20T04:09:00;102044.06;;;23.43;72.43
77161;BME280;66135;0.000;0.000;2023-08-20T04:11:26;102039.25;;;23.45;72.49
77161;BME280;66135;0.000;0.000;2023-08-20T04:13:51;102041.34;;;23.43;72.35
77161;BME280;66135;0.000;0.000;2023-08-20T04:16:16;102054.81;;;23.45;72.31
77161;BME280;66135;0.000;0.000;2023-08-20T04:18:42;102062.34;;;23.42;72.45
77161;BME280;66135;0.000;0.000;2023-08-20T04:21:07;102049.88;;;23.40;72.38
77161;BME280;66135;0.000;0.000;2023-08-20T04:23:33;102053.28;;;23.42;72.11
77161;BME280;66135;0.000;0.000;2023-08-20T04:25:58;102056.03;;;23.42;72.07
77161;BME280;66135;0.000;0.000;2023-08-20T04:28:23;102057.75;;;23.43;72.31
77161;BME280;66135;0.000;0.000;2023-08-20T04:30:52;102059.63;;;23.42;72.22
77161;BME280;66135;0.000;0.000;2023-08-20T04:33:19;102058.94;;;23.40;72.13
77161;BME280;66135;0.000;0.000;2023-08-20T04:35:44;102055.34;;;23.40;72.10
77161;BME280;66135;0.000;0.000;2023-08-20T04:38:10;102060.63;;;23.41;71.76
77161;BME280;66135;0.000;0.000;2023-08-20T04:40:35;102063.56;;;23.40;72.19
77161;BME280;66135;0.000;0.000;2023-08-20T04:43:00;102062.03;;;23.37;72.11
77161;BME280;66135;0.000;0.000;2023-08-20T04:45:26;102064.09;;;23.35;72.40
77161;BME280;66135;0.000;0.000;2023-08-20T04:47:51;102065.97;;;23.35;71.95
77161;BME280;66135;0.000;0.000;2023-08-20T04:50:17;102069.56;;;23.35;70.75
77161;BME280;66135;0.000;0.000;2023-08-20T04:52:42;102068.91;;;23.33;70.58
77161;BME280;66135;0.000;0.000;2023-08-20T04:55:07;102069.06;;;23.32;68.93
77161;BME280;66135;0.000;0.000;2023-08-20T04:57:33;102063.97;;;23.29;67.84
77161;BME280;66135;0.000;0.000;2023-08-20T04:59:59;102068.91;;;23.25;66.25
77161;BME280;66135;0.000;0.000;2023-08-20T05:02:24;102064.47;;;23.24;67.84
77161;BME280;66135;0.000;0.000;2023-08-20T05:04:50;102078.13;;;23.24;67.64
77161;BME280;66135;0.000;0.000;2023-08-20T05:07:15;102076.25;;;23.25;67.83
77161;BME280;66135;0.000;0.000;2023-08-20T05:09:41;102072.47;;;23.26;68.16
77161;BME280;66135;0.000;0.000;2023-08-20T05:12:06;102069.94;;;23.24;68.64
77161;BME280;66135;0.000;0.000;2023-08-20T05:14:32;102057.31;;;23.23;69.18
77161;BME280;66135;0.000;0.000;2023-08-20T05:16:57;102066.50;;;23.22;68.95
77161;BME280;66135;0.000;0.000;2023-08-20T05:19:23;102071.16;;;23.22;69.18
77161;BME280;66135;0.000;0.000;2023-08-20T05:21:48;102079.53;;;23.20;69.27
77161;BME280;66135;0.000;0.000;2023-08-20T05:24:14;102075.09;;;23.19;69.21
77161;BME280;66135;0.000;0.000;2023-08-20T05:26:39;102077.81;;;23.19;68.91
77161;BME280;66135;0.000;0.000;2023-08-20T05:29:04;102079.53;;;23.20;68.94
77161;BME280;66135;0.000;0.000;2023-08-20T05:31:30;102081.22;;;23.21;69.01
77161;BME280;66135;0.000;0.000;2023-08-20T05:33:55;102079.53;;;23.20;68.68
77161;BME280;66135;0.000;0.000;2023-08-20T05:36:20;102083.28;;;23.19;68.99
77161;BME280;66135;0.000;0.000;2023-08-20T05:38:46;102089.13;;;23.16;67.72
77161;BME280;66135;0.000;0.000;2023-08-20T05:41:11;102092.72;;;23.09;66.21
77161;BME280;66135;0.000;0.000;2023-08-20T05:43:37;102091.25;;;22.98;66.06
77161;BME280;66135;0.000;0.000;2023-08-20T05:46:02;102092.28;;;22.89;65.71
77161;BME280;66135;0.000;0.000;2023-08-20T05:48:28;102090.41;;;22.90;66.12
77161;BME280;66135;0.000;0.000;2023-08-20T05:50:54;102091.13;;;22.84;65.19
77161;BME280;66135;0.000;0.000;2023-08-20T05:53:24;102094.38;;;22.79;65.76
77161;BME280;66135;0.000;0.000;2023-08-20T05:55:49;102102.94;;;22.76;65.99
77161;BME280;66135;0.000;0.000;2023-08-20T05:58:15;102098.47;;;22.75;65.61
77161;BME280;66135;0.000;0.000;2023-08-20T06:00:40;102096.09;;;22.72;65.46
77161;BME280;66135;0.000;0.000;2023-08-20T06:03:06;102097.81;;;22.73;65.97
77161;BME280;66135;0.000;0.000;2023-08-20T06:05:34;102087.72;;;22.74;65.96
77161;BME280;66135;0.000;0.000;2023-08-20T06:08:00;102094.41;;;22.71;66.26
77161;BME280;66135;0.000;0.000;2023-08-20T06:10:25;102091.50;;;22.73;66.36
77161;BME280;66135;0.000;0.000;2023-08-20T06:12:51;102093.19;;;22.74;66.62
77161;BME280;66135;0.000;0.000;2023-08-20T06:15:17;102090.97;;;22.77;66.92
77161;BME280;66135;0.000;0.000;2023-08-20T06:17:42;102074.38;;;22.79;66.86
77161;BME280;66135;0.000;0.000;2023-08-20T06:20:08;102081.91;;;22.85;67.13
77161;BME280;66135;0.000;0.000;2023-08-20T06:22:34;102081.53;;;22.88;66.70
77161;BME280;66135;0.000;0.000;2023-08-20T06:25:00;102074.88;;;22.90;67.20
77161;BME280;66135;0.000;0.000;2023-08-20T06:27:28;102089.03;;;22.94;67.17
77161;BME280;66135;0.000;0.000;2023-08-20T06:29:56;102084.44;;;22.94;67.07
77161;BME280;66135;0.000;0.000;2023-08-20T06:32:23;102083.22;;;22.97;67.37
77161;BME280;66135;0.000;0.000;2023-08-20T06:34:49;102088.69;;;22.97;67.29
77161;BME280;66135;0.000;0.000;2023-08-20T06:37:14;102092.28;;;22.97;67.49
77161;BME280;66135;0.000;0.000;2023-08-20T06:39:39;102083.22;;;22.97;67.71
77161;BME280;66135;0.000;0.000;2023-08-20T06:42:05;102096.88;;;22.97;67.46
77161;BME280;66135;0.000;0.000;2023-08-20T06:44:30;102104.06;;;22.98;67.96
77161;BME280;66135;0.000;0.000;2023-08-20T06:46:56;102100.47;;;22.97;67.89
77161;BME280;66135;0.000;0.000;2023-08-20T06:49:21;102103.03;;;22.99;67.78
77161;BME280;66135;0.000;0.000;2023-08-20T06:51:46;102099.44;;;22.98;67.86
77161;BME280;66135;0.000;0.000;2023-08-20T06:54:12;102102.16;;;22.98;67.70
77161;BME280;66135;0.000;0.000;2023-08-20T06:56:37;102103.22;;;22.97;67.95
77161;BME280;66135;0.000;0.000;2023-08-20T06:59:03;102115.00;;;22.98;68.06
77161;BME280;66135;0.000;0.000;2023-08-20T07:01:29;102107.63;;;22.98;68.48
77161;BME280;66135;0.000;0.000;2023-08-20T07:03:54;102104.22;;;22.96;68.19
77161;BME280;66135;0.000;0.000;2023-08-20T07:06:20;102103.38;;;22.96;68.60
77161;BME280;66135;0.000;0.000;2023-08-20T07:08:45;102103.38;;;22.96;68.68
77161;BME280;66135;0.000;0.000;2023-08-20T07:11:11;102100.84;;;22.94;68.71
77161;BME280;66135;0.000;0.000;2023-08-20T07:13:36;102115.34;;;22.95;68.38
77161;BME280;66135;0.000;0.000;2023-08-20T07:16:02;102116.19;;;22.95;68.41
77161;BME280;66135;0.000;0.000;2023-08-20T07:18:28;102116.19;;;22.95;68.78
77161;BME280;66135;0.000;0.000;2023-08-20T07:20:55;102112.59;;;22.95;69.05
77161;BME280;66135;0.000;0.000;2023-08-20T07:23:20;102115.50;;;22.93;68.86
77161;BME280;66135;0.000;0.000;2023-08-20T07:25:46;102112.59;;;22.95;68.92
77161;BME280;66135;0.000;0.000;2023-08-20T07:28:12;102116.38;;;22.94;68.96
77161;BME280;66135;0.000;0.000;2023-08-20T07:30:37;102118.94;;;22.95;68.94
77161;BME280;66135;0.000;0.000;2023-08-20T07:33:03;102122.53;;;22.96;69.02
77161;BME280;66135;0.000;0.000;2023-08-20T07:35:28;102117.06;;;22.96;69.14
77161;BME280;66135;0.000;0.000;2023-08-20T07:37:54;102109.88;;;22.95;69.11
77161;BME280;66135;0.000;0.000;2023-08-20T07:40:20;102108.00;;;22.95;69.19
77161;BME280;66135;0.000;0.000;2023-08-20T07:42:45;102114.31;;;22.96;69.69
77161;BME280;66135;0.000;0.000;2023-08-20T07:45:11;102116.88;;;22.97;69.75
77161;BME280;66135;0.000;0.000;2023-08-20T07:47:37;102106.94;;;22.96;69.79
77161;BME280;66135;0.000;0.000;2023-08-20T07:50:03;102111.41;;;22.97;69.33
77161;BME280;66135;0.000;0.000;2023-08-20T07:52:30;102113.28;;;22.97;69.83
77161;BME280;66135;0.000;0.000;2023-08-20T07:54:55;102119.44;;;22.99;69.63
77161;BME280;66135;0.000;0.000;2023-08-20T07:57:21;102127.63;;;22.99;69.93
77161;BME280;66135;0.000;0.000;2023-08-20T07:59:48;102124.91;;;22.99;69.53
77161;BME280;66135;0.000;0.000;2023-08-20T08:02:14;102125.75;;;22.99;69.63
77161;BME280;66135;0.000;0.000;2023-08-20T08:04:39;102133.97;;;22.99;70.16
77161;BME280;66135;0.000;0.000;2023-08-20T08:07:05;102134.78;;;23.00;69.92
77161;BME280;66135;0.000;0.000;2023-08-20T08:09:31;102138.38;;;23.00;70.05
77161;BME280;66135;0.000;0.000;2023-08-20T08:11:57;102132.91;;;23.00;70.18
77161;BME280;66135;0.000;0.000;2023-08-20T08:14:23;102139.41;;;22.99;70.16
77161;BME280;66135;0.000;0.000;2023-08-20T08:16:49;102140.25;;;23.00;69.91
77161;BME280;66135;0.000;0.000;2023-08-20T08:19:16;102138.38;;;23.00;69.97
77161;BME280;66135;0.000;0.000;2023-08-20T08:21:42;102140.44;;;22.98;70.39
77161;BME280;66135;0.000;0.000;2023-08-20T08:24:08;102145.06;;;22.98;69.99
77161;BME280;66135;0.000;0.000;2023-08-20T08:26:34;102142.34;;;22.98;69.85
77161;BME280;66135;0.000;0.000;2023-08-20T08:29:01;102147.81;;;22.98;70.19
77161;BME280;66135;0.000;0.000;2023-08-20T08:31:26;102152.41;;;22.97;70.29
77161;BME280;66135;0.000;0.000;2023-08-20T08:33:52;102147.94;;;22.96;70.04
77161;BME280;66135;0.000;0.000;2023-08-20T08:36:17;102156.16;;;22.96;69.98
77161;BME280;66135;0.000;0.000;2023-08-20T08:38:44;102157.19;;;22.95;70.02
77161;BME280;66135;0.000;0.000;2023-08-20T08:41:13;102158.06;;;22.96;69.77
77161;BME280;66135;0.000;0.000;2023-08-20T08:43:39;102154.47;;;22.95;69.95
77161;BME280;66135;0.000;0.000;2023-08-20T08:46:15;102148.81;;;22.97;70.20
77161;BME280;66135;0.000;0.000;2023-08-20T08:48:42;102155.31;;;22.96;70.22
77161;BME280;66135;0.000;0.000;2023-08-20T08:51:08;102149.66;;;22.97;69.90
77161;BME280;66135;0.000;0.000;2023-08-20T08:53:35;102162.28;;;22.98;69.84
77161;BME280;66135;0.000;0.000;2023-08-20T08:56:00;102156.81;;;22.98;69.66
77161;BME280;66135;0.000;0.000;2023-08-20T08:58:26;102158.56;;;22.99;69.54
77161;BME280;66135;0.000;0.000;2023-08-20T09:00:52;102157.69;;;22.99;69.50
77161;BME280;66135;0.000;0.000;2023-08-20T09:03:18;102155.81;;;22.99;69.85
77161;BME280;66135;0.000;0.000;2023-08-20T09:05:54;102166.56;;;23.01;69.79
77161;BME280;66135;0.000;0.000;2023-08-20T09:08:21;102159.38;;;23.00;69.67
77161;BME280;66135;0.000;0.000;2023-08-20T09:10:50;102156.47;;;23.01;70.10
77161;BME280;66135;0.000;0.000;2023-08-20T09:13:16;102157.34;;;23.02;70.08
77161;BME280;66135;0.000;0.000;2023-08-20T09:15:41;102151.50;;;23.05;69.99
77161;BME280;66135;0.000;0.000;2023-08-20T09:18:09;102156.66;;;23.08;70.26
77161;BME280;66135;0.000;0.000;2023-08-20T09:20:38;102155.78;;;23.07;70.70
77161;BME280;66135;0.000;0.000;2023-08-20T09:23:13;102157.47;;;23.08;70.75
77161;BME280;66135;0.000;0.000;2023-08-20T09:25:39;102160.22;;;23.08;71.03
77161;BME280;66135;0.000;0.000;2023-08-20T09:28:04;102152.00;;;23.08;71.01
77161;BME280;66135;0.000;0.000;2023-08-20T09:30:30;102161.94;;;23.09;71.01
77161;BME280;66135;0.000;0.000;2023-08-20T09:33:06;102161.06;;;23.09;71.21
77161;BME280;66135;0.000;0.000;2023-08-20T09:35:32;102154.59;;;23.10;71.07
77161;BME280;66135;0.000;0.000;2023-08-20T09:38:07;102152.69;;;23.10;70.89
77161;BME280;66135;0.000;0.000;2023-08-20T09:40:32;102154.41;;;23.11;70.67
77161;BME280;66135;0.000;0.000;2023-08-20T09:42:58;102158.16;;;23.10;70.97
77161;BME280;66135;0.000;0.000;2023-08-20T09:45:25;102157.16;;;23.11;70.68
77161;BME280;66135;0.000;0.000;2023-08-20T09:47:55;102158.84;;;23.12;70.46
77161;BME280;66135;0.000;0.000;2023-08-20T09:50:22;102162.25;;;23.14;70.41
77161;BME280;66135;0.000;0.000;2023-08-20T09:52:57;102155.09;;;23.13;70.76
77161;BME280;66135;0.000;0.000;2023-08-20T09:55:30;102155.91;;;23.14;70.82
77161;BME280;66135;0.000;0.000;2023-08-20T09:57:58;102160.19;;;23.16;70.97
77161;BME280;66135;0.000;0.000;2023-08-20T10:00:25;102160.19;;;23.16;70.52
77161;BME280;66135;0.000;0.000;2023-08-20T10:02:51;102159.34;;;23.16;70.70
77161;BME280;66135;0.000;0.000;2023-08-20T10:05:17;102154.56;;;23.18;70.80
77161;BME280;66135;0.000;0.000;2023-08-20T10:07:46;102153.50;;;23.19;70.71
77161;BME280;66135;0.000;0.000;2023-08-20T10:10:12;102151.63;;;23.19;70.47
77161;BME280;66135;0.000;0.000;2023-08-20T10:12:39;102154.19;;;23.21;70.86
77161;BME280;66135;0.000;0.000;2023-08-20T10:15:07;102154.00;;;23.22;70.86
77161;BME280;66135;0.000;0.000;2023-08-20T10:17:34;102155.72;;;23.23;70.85
77161;BME280;66135;0.000;0.000;2023-08-20T10:20:02;102151.97;;;23.24;70.60
77161;BME280;66135;0.000;0.000;2023-08-20T10:22:44;102159.16;;;23.25;70.85
77161;BME280;66135;0.000;0.000;2023-08-20T10:25:12;102160.69;;;23.28;70.72
77161;BME280;66135;0.000;0.000;2023-08-20T10:27:40;102160.50;;;23.29;70.84
77161;BME280;66135;0.000;0.000;2023-08-20T10:32:52;102154.72;;;23.32;70.55
77161;BME280;66135;0.000;0.000;2023-08-20T10:35:22;102162.56;;;23.35;70.76
77161;BME280;66135;0.000;0.000;2023-08-20T10:38:05;102157.94;;;23.36;71.06
77161;BME280;66135;0.000;0.000;2023-08-20T10:40:58;102158.59;;;23.38;70.91
77161;BME280;66135;0.000;0.000;2023-08-20T10:43:35;102157.56;;;23.39;70.99
77161;BME280;66135;0.000;0.000;2023-08-20T10:46:20;102157.41;;;23.40;70.66
77161;BME280;66135;0.000;0.000;2023-08-20T10:51:37;102154.28;;;23.43;70.70
77161;BME280;66135;0.000;0.000;2023-08-20T10:54:07;102157.72;;;23.46;71.02
77161;BME280;66135;0.000;0.000;2023-08-20T10:56:44;102154.78;;;23.47;71.13
77161;BME280;66135;0.000;0.000;2023-08-20T11:01:43;102161.63;;;23.51;71.67
77161;BME280;66135;0.000;0.000;2023-08-20T11:04:10;102153.91;;;23.55;71.43
77161;BME280;66135;0.000;0.000;2023-08-20T11:06:35;102146.56;;;23.55;71.54
77161;BME280;66135;0.000;0.000;2023-08-20T11:09:02;102158.19;;;23.57;71.50
77161;BME280;66135;0.000;0.000;2023-08-20T11:11:31;102158.00;;;23.59;71.63
77161;BME280;66135;0.000;0.000;2023-08-20T11:14:00;102155.91;;;23.61;71.56
77161;BME280;66135;0.000;0.000;2023-08-20T11:16:29;102153.16;;;23.61;71.49
77161;BME280;66135;0.000;0.000;2023-08-20T11:18:54;102146.50;;;23.63;71.78
77161;BME280;66135;0.000;0.000;2023-08-20T11:21:20;102151.13;;;23.63;71.47
77161;BME280;66135;0.000;0.000;2023-08-20T11:23:46;102148.38;;;23.63;71.37
77161;BME280;66135;0.000;0.000;2023-08-20T11:26:12;102151.13;;;23.63;71.04
77161;BME280;66135;0.000;0.000;2023-08-20T11:28:37;102150.94;;;23.64;70.67
77161;BME280;66135;0.000;0.000;2023-08-20T11:31:02;102150.94;;;23.64;70.67
77161;BME280;66135;0.000;0.000;2023-08-20T11:33:28;102144.44;;;23.65;70.03
77161;BME280;66135;0.000;0.000;2023-08-20T11:35:54;102137.09;;;23.66;69.73
77161;BME280;66135;0.000;0.000;2023-08-20T11:38:22;102143.59;;;23.65;69.43
77161;BME280;66135;0.000;0.000;2023-08-20T11:40:48;102139.84;;;23.66;68.96
77161;BME280;66135;0.000;0.000;2023-08-20T11:43:13;102139.84;;;23.66;68.49
77161;BME280;66135;0.000;0.000;2023-08-20T11:45:48;102144.44;;;23.65;68.27
77161;BME280;66135;0.000;0.000;2023-08-20T11:48:15;102138.97;;;23.65;68.18
77161;BME280;66135;0.000;0.000;2023-08-20T11:50:41;102129.91;;;23.65;68.24
77161;BME280;66135;0.000;0.000;2023-08-20T11:53:22;102125.47;;;23.64;68.31
77161;BME280;66135;0.000;0.000;2023-08-20T11:55:48;102127.34;;;23.63;68.33
77161;BME280;66135;0.000;0.000;2023-08-20T11:58:14;102124.44;;;23.65;68.18
77161;BME280;66135;0.000;0.000;2023-08-20T12:00:40;102120.00;;;23.64;68.66
77161;BME280;66135;0.000;0.000;2023-08-20T12:03:07;102110.06;;;23.63;68.57
77161;BME280;66135;0.000;0.000;2023-08-20T12:05:33;102101.88;;;23.63;68.66
77161;BME280;66135;0.000;0.000;2023-08-20T12:08:02;102102.72;;;23.63;68.69
77161;BME280;66135;0.000;0.000;2023-08-20T12:10:30;102098.94;;;23.64;68.95
77161;BME280;66135;0.000;0.000;2023-08-20T12:12:56;102096.41;;;23.63;68.53
77161;BME280;66135;0.000;0.000;2023-08-20T12:15:23;102094.72;;;23.62;68.79
77161;BME280;66135;0.000;0.000;2023-08-20T12:20:21;102091.13;;;23.61;68.99
77161;BME280;66135;0.000;0.000;2023-08-20T12:22:47;102094.03;;;23.60;68.59
77161;BME280;66135;0.000;0.000;2023-08-20T12:25:12;102086.69;;;23.60;68.73
77161;BME280;66135;0.000;0.000;2023-08-20T12:27:38;102086.88;;;23.59;68.63
77161;BME280;66135;0.000;0.000;2023-08-20T12:30:03;102083.28;;;23.58;68.96
77161;BME280;66135;0.000;0.000;2023-08-20T12:32:29;102084.97;;;23.59;68.85
77161;BME280;66135;0.000;0.000;2023-08-20T12:34:54;102084.31;;;23.57;68.69
77161;BME280;66135;0.000;0.000;2023-08-20T12:37:20;102087.06;;;23.57;68.29
77161;BME280;66135;0.000;0.000;2023-08-20T12:39:45;102085.53;;;23.55;68.70
77161;BME280;66135;0.000;0.000;2023-08-20T12:42:10;102085.34;;;23.56;68.85
77161;BME280;66135;0.000;0.000;2023-08-20T12:44:36;102100.06;;;23.55;68.99
77161;BME280;66135;0.000;0.000;2023-08-20T12:47:01;102085.53;;;23.55;68.40
77161;BME280;66135;0.000;0.000;2023-08-20T12:49:27;102086.56;;;23.54;68.54
77161;BME280;66135;0.000;0.000;2023-08-20T12:51:52;102090.13;;;23.54;68.38
77161;BME280;66135;0.000;0.000;2023-08-20T12:54:17;102085.53;;;23.55;68.58
77161;BME280;66135;0.000;0.000;2023-08-20T12:56:43;102094.78;;;23.54;68.19
77161;BME280;66135;0.000;0.000;2023-08-20T12:59:09;102099.38;;;23.53;67.70
77161;BME280;66135;0.000;0.000;2023-08-20T13:01:34;102088.63;;;23.52;67.34
77161;BME280;66135;0.000;0.000;2023-08-20T13:04:00;102083.97;;;23.52;67.36
77161;BME280;66135;0.000;0.000;2023-08-20T13:06:26;102101.25;;;23.53;67.73
77161;BME280;66135;0.000;0.000;2023-08-20T13:08:51;102086.72;;;23.52;67.49
77161;BME280;66135;0.000;0.000;2023-08-20T13:11:19;102093.06;;;23.53;67.94
77161;BME280;66135;0.000;0.000;2023-08-20T13:13:45;102094.78;;;23.54;67.64
77161;BME280;66135;0.000;0.000;2023-08-20T13:16:11;102093.91;;;23.53;67.93